Time;durP1;ratioP1;P1;durP2;ratioP2;P2;SDS_P1;SDS_P2;PMS_P1;PMS_P2;Temp;Humidity;BMP_temperature;BMP_pressure;BME280_temperature;BME280_humidity;BME280_pressure;Samples;Min_cycle;Max_cycle;Signal;HPM_P1;HPM_P2
2020/12/21 00:02:00;;;;;;;11.98;9.63;;;5.70;85.80;;;;;;4983286;28;20030;-68
2020/12/21 00:04:25;;;;;;;13.90;9.90;;;5.60;85.70;;;;;;4978721;28;20564;-68
2020/12/21 00:06:55;;;;;;;13.27;9.88;;;5.70;85.80;;;;;;4976564;28;20046;-68
2020/12/21 00:09:22;;;;;;;13.18;9.45;;;5.70;86.60;;;;;;4977463;28;20045;-68
2020/12/21 00:11:48;;;;;;;11.75;9.45;;;5.70;85.80;;;;;;4976890;28;20031;-67
2020/12/21 00:14:14;;;;;;;13.77;9.43;;;5.70;85.70;;;;;;4978045;28;20038;-68
2020/12/21 00:16:41;;;;;;;13.27;9.85;;;5.80;85.70;;;;;;4997481;28;20031;-68
2020/12/21 00:19:08;;;;;;;12.45;9.32;;;5.80;85.60;;;;;;4983224;28;20113;-68
2020/12/21 00:21:35;;;;;;;13.18;10.02;;;5.80;85.60;;;;;;4980402;28;20030;-68
2020/12/21 00:24:01;;;;;;;12.77;10.07;;;5.80;85.60;;;;;;4979494;28;20473;-68
2020/12/21 00:26:27;;;;;;;13.52;10.15;;;5.80;85.60;;;;;;4981476;28;20042;-68
2020/12/21 00:28:53;;;;;;;12.60;9.45;;;5.90;85.60;;;;;;4981219;28;20372;-68
2020/12/21 00:31:23;;;;;;;12.98;9.93;;;5.90;85.60;;;;;;4981177;28;20039;-68
2020/12/21 00:33:49;;;;;;;13.40;10.27;;;5.90;85.60;;;;;;4980801;28;20081;-68
2020/12/21 00:36:15;;;;;;;13.20;10.05;;;6.00;85.60;;;;;;4981747;28;20498;-68
2020/12/21 00:38:41;;;;;;;14.80;10.02;;;6.00;85.40;;;;;;4978791;28;20042;-69
2020/12/21 00:41:08;;;;;;;13.95;10.27;;;6.00;85.40;;;;;;4979104;28;20035;-68
2020/12/21 00:43:34;;;;;;;14.48;10.75;;;6.00;85.40;;;;;;4981323;28;20042;-67
2020/12/21 00:45:59;;;;;;;12.63;10.13;;;6.00;85.40;;;;;;4981537;28;20057;-68
2020/12/21 00:48:28;;;;;;;12.68;9.68;;;6.00;85.40;;;;;;4981097;28;20085;-68
2020/12/21 00:50:54;;;;;;;13.63;10.48;;;6.10;85.50;;;;;;4979941;28;20142;-69
2020/12/21 00:53:20;;;;;;;14.43;10.35;;;6.00;85.50;;;;;;4980810;28;20405;-68
2020/12/21 00:55:45;;;;;;;12.15;9.85;;;6.00;85.50;;;;;;4979377;28;20054;-68
2020/12/21 00:58:11;;;;;;;13.52;9.93;;;6.00;85.50;;;;;;4978235;28;20070;-69
2020/12/21 01:00:37;;;;;;;13.27;9.93;;;6.00;85.50;;;;;;4979177;28;20130;-68
2020/12/21 01:03:02;;;;;;;14.40;10.13;;;6.00;85.40;;;;;;4981277;28;20042;-66
2020/12/21 01:05:28;;;;;;;14.98;10.55;;;6.10;85.40;;;;;;4981061;28;20030;-69
2020/12/21 01:07:53;;;;;;;14.75;10.65;;;6.00;85.40;;;;;;4979553;28;20157;-68
2020/12/21 01:10:19;;;;;;;13.10;10.27;;;6.00;85.40;;;;;;4980142;28;20045;-67
2020/12/21 01:12:45;;;;;;;14.48;11.15;;;6.10;85.50;;;;;;4978029;28;20749;-67
2020/12/21 01:15:10;;;;;;;14.35;10.88;;;6.00;85.40;;;;;;4980839;28;20049;-67
2020/12/21 01:17:36;;;;;;;17.15;12.55;;;6.00;85.50;;;;;;4979098;28;20027;-68
2020/12/21 01:20:04;;;;;;;15.70;11.63;;;6.00;85.60;;;;;;4982851;28;20391;-68
2020/12/21 01:22:29;;;;;;;16.13;11.10;;;6.00;85.60;;;;;;4981245;28;20042;-68
2020/12/21 01:24:55;;;;;;;15.30;11.57;;;6.00;85.70;;;;;;4982673;28;20023;-67
2020/12/21 01:27:20;;;;;;;16.58;11.75;;;6.10;85.90;;;;;;4982641;28;20498;-68
2020/12/21 01:29:46;;;;;;;16.13;11.75;;;6.00;86.00;;;;;;4981071;28;20094;-68
2020/12/21 01:32:12;;;;;;;17.80;12.10;;;6.00;86.10;;;;;;4979634;28;20125;-67
2020/12/21 01:34:38;;;;;;;18.02;12.25;;;6.10;86.10;;;;;;4978325;28;20177;-67
2020/12/21 01:37:03;;;;;;;15.45;11.80;;;6.10;86.00;;;;;;4978055;28;20538;-67
2020/12/21 01:39:29;;;;;;;15.25;11.20;;;6.10;86.00;;;;;;4976375;28;20498;-67
2020/12/21 01:41:57;;;;;;;16.20;11.63;;;6.10;86.00;;;;;;4981379;28;20125;-67
2020/12/21 01:44:22;;;;;;;16.23;11.88;;;6.10;86.00;;;;;;4978510;28;20045;-67
2020/12/21 01:46:48;;;;;;;17.48;12.25;;;6.20;86.10;;;;;;4980199;28;20038;-67
2020/12/21 01:49:15;;;;;;;17.98;11.98;;;6.20;86.20;;;;;;4979230;28;20409;-67
2020/12/21 01:51:41;;;;;;;17.65;12.55;;;6.20;86.20;;;;;;4975730;28;20077;-68
2020/12/21 01:54:08;;;;;;;16.90;11.77;;;6.20;86.20;;;;;;4978438;28;20050;-68
2020/12/21 01:56:35;;;;;;;16.77;11.75;;;6.20;86.20;;;;;;4980480;28;20038;-67
2020/12/21 01:59:01;;;;;;;17.80;12.38;;;6.20;86.20;;;;;;4980546;28;20118;-67
2020/12/21 02:01:28;;;;;;;16.08;11.82;;;6.30;86.30;;;;;;4977665;28;20034;-67
2020/12/21 02:03:54;;;;;;;19.45;12.90;;;6.30;86.30;;;;;;4979776;28;20754;-68
2020/12/21 02:06:20;;;;;;;17.92;13.02;;;6.30;86.20;;;;;;4978773;28;20037;-67
2020/12/21 02:08:46;;;;;;;17.33;12.38;;;6.30;86.30;;;;;;4978107;28;20612;-68
2020/12/21 02:11:11;;;;;;;15.68;11.02;;;6.30;86.20;;;;;;4979434;28;20058;-66
2020/12/21 02:13:37;;;;;;;17.27;12.40;;;6.30;86.20;;;;;;4979019;28;20501;-67
2020/12/21 02:16:04;;;;;;;17.63;11.88;;;6.40;86.30;;;;;;4978684;28;20069;-67
2020/12/21 02:18:29;;;;;;;17.90;12.65;;;6.40;86.10;;;;;;4980593;28;20562;-66
2020/12/21 02:20:55;;;;;;;17.48;12.38;;;6.40;86.10;;;;;;4978572;28;20113;-66
2020/12/21 02:23:21;;;;;;;18.15;12.23;;;6.40;86.00;;;;;;4980631;28;20046;-67
2020/12/21 02:25:47;;;;;;;16.98;12.50;;;6.40;86.00;;;;;;4974828;28;20063;-67
2020/12/21 02:28:13;;;;;;;17.55;12.77;;;6.40;86.00;;;;;;4978597;28;20596;-67
2020/12/21 02:30:38;;;;;;;17.52;12.13;;;6.50;86.10;;;;;;4992593;28;20066;-66
2020/12/21 02:33:06;;;;;;;16.55;12.02;;;6.50;86.10;;;;;;4984358;28;20081;-67
2020/12/21 02:35:35;;;;;;;17.75;12.40;;;6.50;86.90;;;;;;4976698;28;20069;-68
2020/12/21 02:38:06;;;;;;;17.05;12.27;;;6.50;86.00;;;;;;4978340;28;20065;-67
2020/12/21 02:40:34;;;;;;;17.15;11.95;;;6.50;86.00;;;;;;4978544;28;20046;-67
2020/12/21 02:42:59;;;;;;;16.75;12.57;;;6.60;86.00;;;;;;4986420;28;20387;-67
2020/12/21 02:45:25;;;;;;;17.88;11.68;;;6.60;85.90;;;;;;4977127;28;20074;-67
2020/12/21 02:47:50;;;;;;;18.08;12.95;;;6.60;85.90;;;;;;4980232;28;20114;-68
2020/12/21 02:50:16;;;;;;;17.77;11.90;;;6.60;85.80;;;;;;4977453;28;20046;-67
2020/12/21 02:52:41;;;;;;;16.73;12.00;;;6.60;85.70;;;;;;4976512;28;20041;-68
2020/12/21 02:55:07;;;;;;;18.92;12.38;;;6.60;85.50;;;;;;4978496;28;20042;-67
2020/12/21 02:57:33;;;;;;;18.60;12.98;;;6.60;85.40;;;;;;4979000;28;20097;-67
2020/12/21 02:59:58;;;;;;;18.77;12.60;;;6.60;86.10;;;;;;4980015;28;20470;-67
2020/12/21 03:02:24;;;;;;;19.55;13.82;;;6.60;85.20;;;;;;4978580;28;20035;-68
2020/12/21 03:04:49;;;;;;;18.13;12.95;;;6.60;85.30;;;;;;4977879;28;20117;-67
2020/12/21 03:07:15;;;;;;;18.58;13.25;;;6.60;85.20;;;;;;4978007;28;20116;-67
2020/12/21 03:09:40;;;;;;;17.40;12.55;;;6.60;85.30;;;;;;4978960;28;20034;-67
2020/12/21 03:12:06;;;;;;;18.00;12.70;;;6.60;85.10;;;;;;4977775;28;20113;-68
2020/12/21 03:14:32;;;;;;;21.10;13.93;;;6.60;84.90;;;;;;4978365;28;20566;-67
2020/12/21 03:16:57;;;;;;;17.50;12.73;;;6.60;84.70;;;;;;4979207;28;20045;-67
2020/12/21 03:19:23;;;;;;;18.08;12.38;;;6.60;84.70;;;;;;4977888;28;20117;-68
2020/12/21 03:21:49;;;;;;;17.70;11.95;;;6.50;84.60;;;;;;4978249;28;20034;-67
2020/12/21 03:24:14;;;;;;;18.80;13.15;;;6.60;84.40;;;;;;4979564;28;20038;-68
2020/12/21 03:26:40;;;;;;;17.27;11.82;;;6.50;84.30;;;;;;4977251;28;20042;-68
2020/12/21 03:29:05;;;;;;;17.83;11.75;;;6.50;84.20;;;;;;4979697;28;20037;-67
2020/12/21 03:31:31;;;;;;;20.25;13.40;;;6.40;84.20;;;;;;4977104;28;20034;-68
2020/12/21 03:33:57;;;;;;;17.23;12.75;;;6.30;84.10;;;;;;4978716;28;20031;-68
2020/12/21 03:36:22;;;;;;;20.00;13.38;;;6.30;84.20;;;;;;4982517;28;20047;-67
2020/12/21 03:38:48;;;;;;;18.17;13.13;;;6.30;84.10;;;;;;4977631;28;20379;-67
2020/12/21 03:41:14;;;;;;;17.92;12.55;;;6.30;84.20;;;;;;4976859;28;20035;-67
2020/12/21 03:43:39;;;;;;;18.85;13.50;;;6.20;84.20;;;;;;4977226;28;20042;-67
2020/12/21 03:46:05;;;;;;;15.18;11.07;;;6.20;84.20;;;;;;4977921;28;20026;-67
2020/12/21 03:48:30;;;;;;;18.02;13.13;;;6.20;84.10;;;;;;4976697;28;20046;-68
2020/12/21 03:50:56;;;;;;;22.42;13.35;;;6.20;84.00;;;;;;4979697;28;20499;-67
2020/12/21 03:53:22;;;;;;;20.55;13.52;;;6.20;84.00;;;;;;4979401;28;20133;-68
2020/12/21 03:55:47;;;;;;;18.15;12.55;;;6.10;84.10;;;;;;4981129;28;20046;-67
2020/12/21 03:58:13;;;;;;;18.70;13.27;;;6.10;84.40;;;;;;4982352;28;20031;-67
2020/12/21 04:00:39;;;;;;;19.27;13.65;;;6.10;84.60;;;;;;4980643;28;20553;-68
2020/12/21 04:03:05;;;;;;;19.25;12.82;;;6.10;84.40;;;;;;4981659;28;20035;-68
2020/12/21 04:05:30;;;;;;;17.67;12.02;;;6.00;84.00;;;;;;4982518;28;20038;-68
2020/12/21 04:07:56;;;;;;;19.33;13.00;;;6.10;84.20;;;;;;4983061;28;20084;-67
2020/12/21 04:10:22;;;;;;;16.52;11.65;;;6.00;84.00;;;;;;4979113;28;20034;-66
2020/12/21 04:12:47;;;;;;;16.95;11.93;;;5.90;83.70;;;;;;4982424;28;20138;-67
2020/12/21 04:15:13;;;;;;;17.77;12.25;;;5.90;83.60;;;;;;4982225;28;20121;-67
2020/12/21 04:17:38;;;;;;;20.33;12.25;;;5.90;83.30;;;;;;4981859;28;20062;-67
2020/12/21 04:20:04;;;;;;;17.75;12.88;;;5.80;83.30;;;;;;4983168;28;20054;-67
2020/12/21 04:22:30;;;;;;;20.70;13.40;;;5.80;83.70;;;;;;4980807;28;20030;-67
2020/12/21 04:24:55;;;;;;;21.58;13.48;;;5.70;83.90;;;;;;4983307;28;20439;-67
2020/12/21 04:27:21;;;;;;;21.58;14.00;;;5.70;84.20;;;;;;4981829;28;20037;-66
2020/12/21 04:29:46;;;;;;;23.27;15.02;;;5.70;84.50;;;;;;4981079;28;20117;-67
2020/12/21 04:32:12;;;;;;;22.85;15.20;;;5.60;84.60;;;;;;4979299;28;20054;-67
2020/12/21 04:34:38;;;;;;;23.95;13.93;;;5.70;85.70;;;;;;4981767;28;20051;-67
2020/12/21 04:37:03;;;;;;;21.45;14.95;;;5.70;85.00;;;;;;4980091;28;20553;-67
2020/12/21 04:39:30;;;;;;;21.35;14.07;;;5.60;84.80;;;;;;4981936;28;20045;-67
2020/12/21 04:41:58;;;;;;;21.90;14.00;;;5.60;84.80;;;;;;4980056;28;20039;-67
2020/12/21 04:44:25;;;;;;;24.35;15.15;;;5.60;84.70;;;;;;4981226;28;20035;-67
2020/12/21 04:46:55;;;;;;;22.27;13.80;;;5.60;84.60;;;;;;4981964;28;20050;-67
2020/12/21 04:49:20;;;;;;;20.63;13.68;;;5.70;84.80;;;;;;4979660;28;20019;-67
2020/12/21 04:51:47;;;;;;;21.15;13.70;;;5.70;84.80;;;;;;4980578;28;20040;-66
2020/12/21 04:54:14;;;;;;;21.13;14.30;;;5.70;84.90;;;;;;4978561;28;20030;-67
2020/12/21 04:56:44;;;;;;;19.00;13.23;;;5.60;85.80;;;;;;4980627;28;20106;-67
2020/12/21 04:59:10;;;;;;;21.85;14.55;;;5.70;85.10;;;;;;4980950;28;20576;-67
2020/12/21 05:01:36;;;;;;;20.88;13.43;;;5.70;85.10;;;;;;4983232;28;20034;-67
2020/12/21 05:04:02;;;;;;;20.58;13.80;;;5.70;85.10;;;;;;4980020;28;20113;-67
2020/12/21 05:06:28;;;;;;;20.40;14.18;;;5.70;85.10;;;;;;4980567;28;20046;-67
2020/12/21 05:09:05;;;;;;;21.23;13.90;;;5.70;85.10;;;;;;4980085;28;20031;-66
2020/12/21 05:11:31;;;;;;;21.88;14.27;;;5.70;85.10;;;;;;4978672;28;20038;-66
2020/12/21 05:14:10;;;;;;;21.83;14.40;;;5.70;85.00;;;;;;4981161;28;20510;-66
2020/12/21 05:16:36;;;;;;;20.73;14.07;;;5.70;84.70;;;;;;4980174;28;20074;-67
2020/12/21 05:19:03;;;;;;;22.63;14.18;;;5.80;84.60;;;;;;4996460;28;20406;-67
2020/12/21 05:21:30;;;;;;;22.88;14.70;;;5.70;84.40;;;;;;4981072;28;20035;-67
2020/12/21 05:24:00;;;;;;;27.80;17.55;;;5.80;84.40;;;;;;4982535;28;20038;-67
2020/12/21 05:26:28;;;;;;;28.85;18.25;;;5.70;84.40;;;;;;4978647;28;20084;-67
2020/12/21 05:28:53;;;;;;;27.08;17.08;;;5.70;84.60;;;;;;4981028;28;21706;-67
2020/12/21 05:31:19;;;;;;;27.98;17.23;;;5.70;84.80;;;;;;4979978;28;20510;-67
2020/12/21 05:33:45;;;;;;;29.33;17.83;;;5.70;85.10;;;;;;4980971;28;20088;-67
2020/12/21 05:36:13;;;;;;;27.35;16.77;;;5.70;85.40;;;;;;4980312;28;20429;-67
2020/12/21 05:38:40;;;;;;;22.20;14.70;;;5.70;85.80;;;;;;4975848;28;20031;-67
2020/12/21 05:41:17;;;;;;;36.67;15.50;;;5.70;86.00;;;;;;4979511;28;20121;-66
2020/12/21 05:43:44;;;;;;;57.42;15.30;;;5.70;86.50;;;;;;4981255;28;20046;-67
2020/12/21 05:46:10;;;;;;;78.82;16.05;;;5.70;86.30;;;;;;4978027;28;20202;-67
2020/12/21 05:48:41;;;;;;;74.88;15.25;;;5.70;86.60;;;;;;4979130;28;20505;-67
2020/12/21 05:51:09;;;;;;;55.65;15.02;;;5.70;86.70;;;;;;4976619;28;20053;-67
2020/12/21 05:53:44;;;;;;;44.33;15.82;;;5.70;86.80;;;;;;4979256;28;20090;-67
2020/12/21 05:56:10;;;;;;;75.05;16.67;;;5.70;87.10;;;;;;4978636;28;20042;-67
2020/12/21 05:58:39;;;;;;;67.15;16.35;;;5.70;87.00;;;;;;4977969;28;20038;-67
2020/12/21 06:01:10;;;;;;;68.32;15.95;;;5.80;87.00;;;;;;4978727;28;20059;-67
2020/12/21 06:03:48;;;;;;;64.90;15.65;;;5.70;87.00;;;;;;4980606;28;20101;-67
2020/12/21 06:06:18;;;;;;;98.50;15.10;;;5.80;87.20;;;;;;4981075;28;20067;-67
2020/12/21 06:08:46;;;;;;;74.97;15.55;;;5.80;87.10;;;;;;4978944;28;20046;-67
2020/12/21 06:11:18;;;;;;;67.38;15.25;;;5.80;87.20;;;;;;4978937;28;20062;-67
2020/12/21 06:13:49;;;;;;;51.47;15.20;;;5.80;87.30;;;;;;4979093;28;20109;-67
2020/12/21 06:16:16;;;;;;;68.38;14.88;;;5.80;87.20;;;;;;4980493;28;20121;-67
2020/12/21 06:18:42;;;;;;;49.53;15.45;;;5.90;87.20;;;;;;4977929;28;20038;-67
2020/12/21 06:21:08;;;;;;;51.50;20.17;;;5.90;87.20;;;;;;4980379;28;20050;-67
2020/12/21 06:23:37;;;;;;;53.95;20.27;;;5.90;87.20;;;;;;4979164;28;20046;-68
2020/12/21 06:26:13;;;;;;;66.47;18.75;;;5.90;87.30;;;;;;4979955;28;20507;-67
2020/12/21 06:28:39;;;;;;;60.90;16.98;;;5.90;87.50;;;;;;4979126;28;20039;-67
2020/12/21 06:31:41;;;;;;;57.88;16.23;;;6.00;87.30;;;;;;4975136;28;20041;-67
2020/12/21 06:34:09;;;;;;;44.00;15.45;;;6.00;87.90;;;;;;4973616;28;20509;-67
2020/12/21 06:36:35;;;;;;;55.10;14.15;;;6.00;87.30;;;;;;4975842;28;20100;-68
2020/12/21 06:39:01;;;;;;;49.00;15.63;;;6.00;87.40;;;;;;4975150;28;20046;-67
2020/12/21 06:41:27;;;;;;;43.38;15.05;;;6.00;87.40;;;;;;4974034;28;20039;-67
2020/12/21 06:44:07;;;;;;;56.17;14.85;;;6.00;87.50;;;;;;4974299;28;20409;-67
2020/12/21 06:46:35;;;;;;;52.20;15.75;;;6.10;87.80;;;;;;4978136;28;20090;-67
2020/12/21 06:49:15;;;;;;;53.55;15.20;;;6.10;87.70;;;;;;4977569;28;20061;-68
2020/12/21 06:51:45;;;;;;;56.10;14.30;;;6.10;88.80;;;;;;4976932;28;20038;-67
2020/12/21 06:54:12;;;;;;;65.35;13.77;;;6.10;87.90;;;;;;4978608;28;20035;-68
2020/12/21 06:56:39;;;;;;;66.40;14.65;;;6.20;88.00;;;;;;4977504;28;20418;-67
2020/12/21 06:59:10;;;;;;;59.25;15.05;;;6.20;88.00;;;;;;4978277;28;20035;-67
2020/12/21 07:01:36;;;;;;;46.25;13.90;;;6.20;88.10;;;;;;4979599;28;20046;-67
2020/12/21 07:04:02;;;;;;;38.58;14.18;;;6.20;88.00;;;;;;4979610;28;20919;-67
2020/12/21 07:06:27;;;;;;;32.30;13.95;;;6.20;88.00;;;;;;4980262;28;20038;-67
2020/12/21 07:08:59;;;;;;;30.85;13.95;;;6.20;88.00;;;;;;4978182;28;20089;-68
2020/12/21 07:11:24;;;;;;;38.60;15.07;;;6.20;88.90;;;;;;4977511;28;20026;-68
2020/12/21 07:13:51;;;;;;;29.88;13.75;;;6.20;88.00;;;;;;4978778;28;20034;-67
2020/12/21 07:16:18;;;;;;;31.63;13.77;;;6.30;88.00;;;;;;4978920;28;20039;-67
2020/12/21 07:18:45;;;;;;;30.30;13.82;;;6.20;88.00;;;;;;4975893;28;20050;-67
2020/12/21 07:21:11;;;;;;;25.80;13.60;;;6.30;88.00;;;;;;4994326;28;20030;-67
2020/12/21 07:23:41;;;;;;;29.83;14.73;;;6.30;87.90;;;;;;4977466;28;20046;-67
2020/12/21 07:26:07;;;;;;;23.88;13.27;;;6.30;87.90;;;;;;4979894;28;20113;-67
2020/12/21 07:28:33;;;;;;;36.38;12.80;;;6.30;87.70;;;;;;4976933;28;20702;-67
2020/12/21 07:31:13;;;;;;;33.40;13.82;;;6.30;87.70;;;;;;4977482;28;20065;-68
2020/12/21 07:33:51;;;;;;;30.70;13.85;;;6.40;87.90;;;;;;4979154;28;20038;-67
2020/12/21 07:36:17;;;;;;;24.35;13.10;;;6.40;87.70;;;;;;4979241;28;20375;-67
2020/12/21 07:38:44;;;;;;;25.10;13.35;;;6.50;87.50;;;;;;4973004;28;20030;-67
2020/12/21 07:41:10;;;;;;;28.17;14.60;;;6.40;87.30;;;;;;4977201;28;20049;-67
2020/12/21 07:43:43;;;;;;;36.00;16.63;;;6.40;88.00;;;;;;4978587;28;20043;-66
2020/12/21 07:46:18;;;;;;;32.30;15.70;;;6.40;87.00;;;;;;4976826;28;21523;-67
2020/12/21 07:48:45;;;;;;;46.00;18.05;;;6.40;86.60;;;;;;4975724;28;20092;-67
2020/12/21 07:51:10;;;;;;;45.63;19.10;;;6.50;86.40;;;;;;4974974;28;20041;-67
2020/12/21 07:53:40;;;;;;;63.25;21.60;;;6.40;86.10;;;;;;4983233;28;20039;-67
2020/12/21 07:56:07;;;;;;;46.78;20.95;;;6.30;85.90;;;;;;4978840;28;20030;-68
2020/12/21 07:58:35;;;;;;;47.50;19.95;;;6.30;85.80;;;;;;4977580;28;20034;-67
2020/12/21 08:01:01;;;;;;;55.70;20.60;;;6.20;85.80;;;;;;4976503;28;20081;-67
2020/12/21 08:03:29;;;;;;;58.88;20.17;;;6.20;85.80;;;;;;4972826;28;20886;-67
2020/12/21 08:06:08;;;;;;;42.75;18.92;;;6.20;85.80;;;;;;4978135;28;20105;-67
2020/12/21 08:08:35;;;;;;;39.20;17.23;;;6.10;85.90;;;;;;4983306;28;20038;-67
2020/12/21 08:11:01;;;;;;;34.67;16.20;;;6.10;86.00;;;;;;4975781;28;20039;-67
2020/12/21 08:13:27;;;;;;;36.25;14.85;;;6.10;86.10;;;;;;4977740;28;20046;-67
2020/12/21 08:16:07;;;;;;;41.95;14.13;;;6.10;86.20;;;;;;4976397;28;20035;-67
2020/12/21 08:18:33;;;;;;;34.10;15.05;;;6.10;86.40;;;;;;4978412;28;20042;-67
2020/12/21 08:20:58;;;;;;;38.75;14.02;;;6.10;86.40;;;;;;4976908;28;20506;-67
2020/12/21 08:23:28;;;;;;;36.10;14.18;;;6.10;86.50;;;;;;4972614;28;20066;-67
2020/12/21 08:25:55;;;;;;;29.33;13.82;;;6.10;86.60;;;;;;4974185;28;20619;-67
2020/12/21 08:28:38;;;;;;;33.67;13.18;;;6.10;86.60;;;;;;4973210;28;20699;-67
2020/12/21 08:31:05;;;;;;;25.63;12.05;;;6.10;87.00;;;;;;4972721;28;20522;-67
2020/12/21 08:33:31;;;;;;;41.60;14.02;;;6.10;87.70;;;;;;4974931;28;20039;-67
2020/12/21 08:35:56;;;;;;;39.33;14.40;;;6.10;87.00;;;;;;4980368;28;20033;-67
2020/12/21 08:38:22;;;;;;;32.70;13.70;;;6.10;87.00;;;;;;4981629;28;20089;-66
2020/12/21 08:40:58;;;;;;;29.20;14.60;;;6.20;87.20;;;;;;4977435;28;20169;-67
2020/12/21 08:43:23;;;;;;;29.52;13.57;;;6.20;87.40;;;;;;4970930;28;20042;-67
2020/12/21 08:45:49;;;;;;;29.13;13.38;;;6.20;87.30;;;;;;4972514;28;20044;-66
2020/12/21 08:48:15;;;;;;;27.30;13.52;;;6.20;87.50;;;;;;4970450;28;20038;-68
2020/12/21 08:50:40;;;;;;;24.05;13.75;;;6.30;87.70;;;;;;4968014;28;20325;-68
2020/12/21 08:53:06;;;;;;;24.08;13.05;;;6.30;87.70;;;;;;4969387;28;20121;-68
2020/12/21 08:55:32;;;;;;;21.17;11.85;;;6.40;87.90;;;;;;4969698;28;20494;-68
2020/12/21 08:57:57;;;;;;;20.17;11.73;;;6.40;87.90;;;;;;4970426;28;20053;-68
2020/12/21 09:00:23;;;;;;;18.10;11.18;;;6.50;87.90;;;;;;4971342;28;20060;-68
2020/12/21 09:02:48;;;;;;;21.08;11.57;;;6.50;87.90;;;;;;4967733;28;20062;-67
2020/12/21 09:05:14;;;;;;;16.85;10.52;;;6.50;87.90;;;;;;4972182;28;20042;-67
2020/12/21 09:07:39;;;;;;;19.00;10.68;;;6.50;88.00;;;;;;4968590;28;20057;-67
2020/12/21 09:10:05;;;;;;;17.25;10.98;;;6.50;88.00;;;;;;4965838;28;20038;-67
2020/12/21 09:12:32;;;;;;;21.75;11.70;;;6.50;88.00;;;;;;4968260;28;20045;-67
2020/12/21 09:14:58;;;;;;;17.98;10.73;;;6.50;88.00;;;;;;4968183;28;20595;-68
2020/12/21 09:17:24;;;;;;;29.05;11.50;;;6.50;88.70;;;;;;4970446;28;20046;-67
2020/12/21 09:19:50;;;;;;;19.13;10.88;;;6.60;87.90;;;;;;4970863;28;20041;-66
2020/12/21 09:22:15;;;;;;;16.50;10.52;;;6.60;87.70;;;;;;4969048;28;20398;-68
2020/12/21 09:24:41;;;;;;;17.92;10.90;;;6.60;87.60;;;;;;4969502;28;20736;-67
2020/12/21 09:27:07;;;;;;;22.00;12.43;;;6.60;87.60;;;;;;4971790;28;20046;-67
2020/12/21 09:29:32;;;;;;;22.48;11.02;;;6.70;87.60;;;;;;4971029;28;20039;-67
2020/12/21 09:31:59;;;;;;;20.48;11.85;;;6.70;87.60;;;;;;4969166;28;20034;-67
2020/12/21 09:34:25;;;;;;;19.10;11.18;;;6.70;87.50;;;;;;4969436;28;20057;-67
2020/12/21 09:36:50;;;;;;;16.92;9.45;;;6.70;87.60;;;;;;4971185;28;20486;-67
2020/12/21 09:39:16;;;;;;;19.75;11.45;;;6.70;87.70;;;;;;4972192;28;20033;-67
2020/12/21 09:41:42;;;;;;;22.80;11.20;;;6.70;87.80;;;;;;4968594;28;20947;-67
2020/12/21 09:44:07;;;;;;;28.33;12.90;;;6.70;87.80;;;;;;4966707;28;20372;-67
2020/12/21 09:46:33;;;;;;;23.27;10.60;;;6.70;87.60;;;;;;4972954;28;20692;-68
2020/12/21 09:49:03;;;;;;;19.40;11.23;;;6.70;87.60;;;;;;4967250;28;20138;-68
2020/12/21 09:51:29;;;;;;;20.05;10.90;;;6.70;88.40;;;;;;4967130;28;20034;-68
2020/12/21 09:53:55;;;;;;;20.35;10.82;;;6.70;87.60;;;;;;4968866;28;20042;-67
2020/12/21 09:56:21;;;;;;;20.83;11.80;;;6.70;87.60;;;;;;4968726;28;20155;-67
2020/12/21 09:58:46;;;;;;;18.80;11.13;;;6.70;87.80;;;;;;4979148;28;20402;-67
2020/12/21 10:01:13;;;;;;;19.63;11.43;;;6.70;87.80;;;;;;4979894;28;20043;-67
2020/12/21 10:03:40;;;;;;;20.10;11.38;;;6.70;87.70;;;;;;4981784;28;20050;-67
2020/12/21 10:06:10;;;;;;;17.30;10.20;;;6.70;87.60;;;;;;4979803;28;20510;-67
2020/12/21 10:08:36;;;;;;;16.20;10.05;;;6.70;87.70;;;;;;4995803;28;20038;-67
2020/12/21 10:11:02;;;;;;;18.70;10.50;;;6.70;87.60;;;;;;4977412;28;20038;-67
2020/12/21 10:13:28;;;;;;;19.33;10.48;;;6.70;87.70;;;;;;4980114;28;20042;-67
2020/12/21 10:15:53;;;;;;;19.20;10.50;;;6.70;87.80;;;;;;4978582;28;20034;-68
2020/12/21 10:18:19;;;;;;;19.38;11.13;;;6.70;88.00;;;;;;4979617;28;20577;-67
2020/12/21 10:20:45;;;;;;;19.52;11.23;;;6.80;88.00;;;;;;4980556;28;20144;-68
2020/12/21 10:23:12;;;;;;;16.98;10.32;;;6.80;88.00;;;;;;4980615;28;20034;-67
2020/12/21 10:25:37;;;;;;;16.90;10.38;;;6.80;87.80;;;;;;4980814;28;20062;-68
2020/12/21 10:28:03;;;;;;;32.70;12.90;;;6.80;87.80;;;;;;4978954;28;20038;-68
2020/12/21 10:30:30;;;;;;;27.20;11.02;;;6.90;87.80;;;;;;4980193;28;20046;-67
2020/12/21 10:32:55;;;;;;;23.92;11.20;;;6.90;87.70;;;;;;4981315;28;20042;-68
2020/12/21 10:35:21;;;;;;;19.75;10.85;;;6.80;87.70;;;;;;4979542;28;20042;-68
2020/12/21 10:37:46;;;;;;;17.00;10.65;;;6.90;88.60;;;;;;4977525;28;20612;-67
2020/12/21 10:40:12;;;;;;;23.33;11.43;;;6.90;87.70;;;;;;4980203;28;20038;-66
2020/12/21 10:42:38;;;;;;;17.85;11.02;;;6.90;87.70;;;;;;4974861;28;20130;-67
2020/12/21 10:45:04;;;;;;;18.30;11.23;;;6.90;87.80;;;;;;4980077;28;20057;-67
2020/12/21 10:47:30;;;;;;;21.08;11.48;;;6.90;87.80;;;;;;4978075;28;20066;-67
2020/12/21 10:49:56;;;;;;;19.48;10.52;;;6.90;88.00;;;;;;4979674;28;20518;-67
2020/12/21 10:52:22;;;;;;;17.85;11.27;;;6.90;88.00;;;;;;4981122;28;20058;-68
2020/12/21 10:54:47;;;;;;;16.73;10.00;;;7.00;88.10;;;;;;4985722;28;20410;-67
2020/12/21 10:57:13;;;;;;;20.88;11.80;;;7.10;88.20;;;;;;4978866;28;20050;-67
2020/12/21 10:59:38;;;;;;;18.80;10.48;;;7.10;88.10;;;;;;4977316;28;20454;-67
2020/12/21 11:02:04;;;;;;;17.83;10.60;;;7.10;88.00;;;;;;4978446;28;20034;-67
2020/12/21 11:04:29;;;;;;;18.58;10.98;;;7.20;88.00;;;;;;4976819;28;20398;-68
2020/12/21 11:06:55;;;;;;;16.98;10.57;;;7.30;87.90;;;;;;4977552;28;20041;-67
2020/12/21 11:09:21;;;;;;;21.70;10.50;;;7.30;87.80;;;;;;4978701;28;20046;-67
2020/12/21 11:11:47;;;;;;;19.02;11.63;;;7.40;87.60;;;;;;4975955;28;20034;-68
2020/12/21 11:14:13;;;;;;;18.75;11.30;;;7.40;87.40;;;;;;4979578;28;20045;-68
2020/12/21 11:16:38;;;;;;;18.38;11.93;;;7.40;87.30;;;;;;4978973;28;20034;-67
2020/12/21 11:19:04;;;;;;;19.63;11.55;;;7.40;87.30;;;;;;4978391;28;20053;-67
2020/12/21 11:21:36;;;;;;;17.95;11.23;;;7.50;87.30;;;;;;4977851;28;20039;-67
2020/12/21 11:24:02;;;;;;;20.15;12.13;;;7.50;87.30;;;;;;4979119;28;20357;-68
2020/12/21 11:26:27;;;;;;;19.38;11.82;;;7.60;87.30;;;;;;4978859;28;20166;-65
2020/12/21 11:28:53;;;;;;;20.55;11.93;;;7.60;87.20;;;;;;4979208;28;20120;-68
2020/12/21 11:31:18;;;;;;;17.25;11.23;;;7.60;87.10;;;;;;4979907;28;20490;-67
2020/12/21 11:33:44;;;;;;;18.30;11.73;;;7.70;87.10;;;;;;4979720;28;20034;-67
2020/12/21 11:36:13;;;;;;;18.90;10.93;;;7.70;87.10;;;;;;4979626;28;20569;-67
2020/12/21 11:38:39;;;;;;;18.00;11.35;;;7.70;86.70;;;;;;4975407;28;20503;-67
2020/12/21 11:41:05;;;;;;;18.00;11.40;;;7.80;86.60;;;;;;4979967;28;20038;-67
2020/12/21 11:43:31;;;;;;;19.25;12.10;;;7.80;86.50;;;;;;4979789;28;20089;-66
2020/12/21 11:45:57;;;;;;;18.27;12.32;;;7.80;86.40;;;;;;4977630;28;20129;-68
2020/12/21 11:48:22;;;;;;;23.85;13.93;;;7.80;86.40;;;;;;4979111;28;20176;-68
2020/12/21 11:50:48;;;;;;;20.92;12.45;;;7.80;86.40;;;;;;4977765;28;20421;-67
2020/12/21 11:53:14;;;;;;;20.33;12.55;;;7.80;86.40;;;;;;4977342;28;20463;-67
2020/12/21 11:55:39;;;;;;;23.17;11.85;;;7.80;86.40;;;;;;4983203;28;20039;-68
2020/12/21 11:58:05;;;;;;;18.65;11.98;;;7.70;86.50;;;;;;4983547;28;20517;-68
2020/12/21 12:00:31;;;;;;;21.50;12.65;;;7.70;86.60;;;;;;4979354;28;20038;-66
2020/12/21 12:02:57;;;;;;;20.23;12.23;;;7.70;86.90;;;;;;4978491;28;20036;-65
2020/12/21 12:05:22;;;;;;;22.13;13.15;;;7.70;86.90;;;;;;4979269;28;20035;-65
2020/12/21 12:07:48;;;;;;;22.30;13.15;;;7.80;87.00;;;;;;4980018;28;20031;-65
2020/12/21 12:10:14;;;;;;;21.80;12.48;;;7.80;87.10;;;;;;4979420;28;20053;-66
2020/12/21 12:12:39;;;;;;;22.52;13.38;;;7.80;87.30;;;;;;4996481;28;20043;-66
2020/12/21 12:15:06;;;;;;;21.17;12.73;;;7.80;87.30;;;;;;4983645;28;20500;-66
2020/12/21 12:17:32;;;;;;;21.73;12.93;;;7.90;87.50;;;;;;4986613;28;20035;-65
2020/12/21 12:19:57;;;;;;;20.48;12.63;;;7.90;87.50;;;;;;4983962;28;20043;-65
2020/12/21 12:22:23;;;;;;;20.65;12.57;;;8.00;87.60;;;;;;4983489;28;20155;-65
2020/12/21 12:24:48;;;;;;;20.55;12.35;;;8.10;87.40;;;;;;4982730;28;20480;-66
2020/12/21 12:27:14;;;;;;;19.23;12.23;;;8.10;87.30;;;;;;4981395;28;20582;-66
2020/12/21 12:29:40;;;;;;;19.98;12.10;;;8.20;87.20;;;;;;4984050;28;20049;-67
2020/12/21 12:32:06;;;;;;;20.02;12.63;;;8.30;87.10;;;;;;4984447;28;20025;-66
2020/12/21 12:34:31;;;;;;;20.27;12.82;;;8.30;87.40;;;;;;4983371;28;20064;-66
2020/12/21 12:36:57;;;;;;;18.63;12.10;;;8.30;86.80;;;;;;4984054;28;20034;-65